Time;durP1;ratioP1;P1;durP2;ratioP2;P2;SDS_P1;SDS_P2;PMS_P1;PMS_P2;Temp;Humidity;BMP_temperature;BMP_pressure;BME280_temperature;BME280_humidity;BME280_pressure;Samples;Min_cycle;Max_cycle;Signal;HPM_P1;HPM_P2
2022/08/03 00:04:21;;;;;;;;;;;;;;;;;;10543632;28;19924;-65
2022/08/03 00:09:23;;;;;;;;;;;;;;;;;;10539818;28;20378;-64
2022/08/03 00:14:25;;;;;;;;;;;;;;;;;;10502697;28;19931;-65
2022/08/03 00:19:27;;;;;;;;;;;;;;;;;;10503117;28;19932;-65
2022/08/03 00:24:30;;;;;;;;;;;;;;;;;;10542958;28;19924;-64
2022/08/03 00:29:32;;;;;;;;;;;;;;;;;;10539740;28;19955;-64
2022/08/03 00:34:34;;;;;;;;;;;;;;;;;;10532206;28;19924;-65
2022/08/03 00:39:56;;;;;;;;;;;;;;;;;;10530852;28;19924;-64
2022/08/03 00:44:58;;;;;;;;;;;;;;;;;;10542266;28;19931;-64
2022/08/03 00:50:00;;;;;;;;;;;;;;;;;;10535023;28;19924;-64
2022/08/03 00:55:02;;;;;;;;;;;;;;;;;;10501098;28;19933;-64
2022/08/03 01:00:04;;;;;;;;;;;;;;;;;;10506380;28;19924;-64
2022/08/03 01:05:06;;;;;;;;;;;;;;;;;;10540981;28;19930;-64
2022/08/03 01:10:08;;;;;;;;;;;;;;;;;;10533647;28;19925;-64
2022/08/03 01:15:10;;;;;;;;;;;;;;;;;;10536029;28;19931;-59
2022/08/03 01:20:13;;;;;;;;;;;;;;;;;;10533478;28;19932;-59
2022/08/03 01:25:15;;;;;;;;;;;;;;;;;;10498537;28;19947;-59
2022/08/03 01:30:17;;;;;;;;;;;;;;;;;;10506892;28;19930;-59
2022/08/03 01:35:19;;;;;;;;;;;;;;;;;;10538418;28;20278;-58
2022/08/03 01:40:21;;;;;;;;;;;;;;;;;;10530229;28;19935;-58
2022/08/03 01:45:23;;;;;;;;;;;;;;;;;;10498783;28;19935;-59
2022/08/03 01:50:25;;;;;;;;;;;;;;;;;;10508061;28;20376;-58
2022/08/03 01:55:27;;;;;;;;;;;;;;;;;;10503880;28;19924;-58
2022/08/03 02:00:29;;;;;;;;;;;;;;;;;;10511552;28;20393;-59
2022/08/03 02:05:31;;;;;;;;;;;;;;;;;;10540121;28;19924;-58
2022/08/03 02:10:33;;;;;;;;;;;;;;;;;;10528616;28;19928;-58
2022/08/03 02:15:36;;;;;;;;;;;;;;;;;;10480945;28;20011;-59
2022/08/03 02:20:39;;;;;;;;;;;;;;;;;;10508751;28;19930;-59
2022/08/03 02:25:41;;;;;;;;;;;;;;;;;;10535527;28;19924;-59
2022/08/03 02:30:43;;;;;;;;;;;;;;;;;;10526945;28;19928;-59
2022/08/03 02:35:45;;;;;;;;;;;;;;;;;;10541870;28;20398;-59
2022/08/03 02:40:47;;;;;;;;;;;;;;;;;;10535109;28;19924;-59
2022/08/03 02:45:49;;;;;;;;;;;;;;;;;;10505091;28;19924;-59
2022/08/03 02:50:51;;;;;;;;;;;;;;;;;;10517145;28;19931;-59
2022/08/03 02:55:53;;;;;;;;;;;;;;;;;;10543924;28;20383;-59
2022/08/03 03:00:55;;;;;;;;;;;;;;;;;;10533487;28;19925;-59
2022/08/03 03:05:58;;;;;;;;;;;;;;;;;;10486601;28;20046;-59
2022/08/03 03:11:00;;;;;;;;;;;;;;;;;;10515132;28;19924;-59
2022/08/03 03:16:02;;;;;;;;;;;;;;;;;;10504066;28;19925;-58
2022/08/03 03:21:04;;;;;;;;;;;;;;;;;;10516252;28;19924;-58
2022/08/03 03:26:07;;;;;;;;;;;;;;;;;;10545494;28;19924;-58
2022/08/03 03:31:09;;;;;;;;;;;;;;;;;;10533321;28;19931;-59
2022/08/03 03:36:11;;;;;;;;;;;;;;;;;;10544798;28;19931;-59
2022/08/03 03:41:13;;;;;;;;;;;;;;;;;;10530355;28;19929;-58
2022/08/03 03:46:15;;;;;;;;;;;;;;;;;;10502590;28;19932;-59
2022/08/03 03:51:17;;;;;;;;;;;;;;;;;;10515241;28;19924;-59
2022/08/03 03:56:19;;;;;;;;;;;;;;;;;;10544267;28;19924;-59
2022/08/03 04:01:21;;;;;;;;;;;;;;;;;;10525715;28;19925;-58
2022/08/03 04:11:44;;;;;;;;;;;;;;;;;;10513974;28;19931;-59
2022/08/03 04:16:46;;;;;;;;;;;;;;;;;;10500887;28;20280;-58
2022/08/03 04:21:48;;;;;;;;;;;;;;;;;;10522273;28;19924;-58
2022/08/03 04:26:50;;;;;;;;;;;;;;;;;;10543021;28;19924;-59
2022/08/03 04:31:53;;;;;;;;;;;;;;;;;;10526207;28;19928;-59
2022/08/03 04:36:55;;;;;;;;;;;;;;;;;;10541654;28;20401;-59
2022/08/03 04:41:58;;;;;;;;;;;;;;;;;;10516814;28;20276;-59
2022/08/03 04:47:08;;;;;;;;;;;;;;;;;;10514076;22;19924;-66
2022/08/03 04:52:10;;;;;;;;;;;;;;;;;;10524479;28;19925;-66
2022/08/03 04:57:12;;;;;;;;;;;;;;;;;;10540610;28;19935;-66
2022/08/03 05:02:23;;;;;;;;;;;;;;;;;;10513441;28;19929;-66
2022/08/03 05:07:25;;;;;;;;;;;;;;;;;;10499467;28;19924;-66
2022/08/03 05:12:36;;;;;;;;;;;;;;;;;;10568070;28;19923;-66
2022/08/03 05:17:39;;;;;;;;;;;;;;;;;;10583320;28;19924;-66
2022/08/03 05:22:41;;;;;;;;;;;;;;;;;;10564952;28;19930;-66
2022/08/03 05:27:43;;;;;;;;;;;;;;;;;;10582380;28;20271;-64
2022/08/03 05:32:45;;;;;;;;;;;;;;;;;;10582076;28;19924;-64
2022/08/03 05:37:47;;;;;;;;;;;;;;;;;;10582396;28;19923;-64
2022/08/03 05:42:56;;;;;;;;;;;;;;;;;;10580246;28;19970;-64
2022/08/03 05:47:58;;;;;;;;;;;;;;;;;;10580363;28;19923;-64
2022/08/03 05:53:00;;;;;;;;;;;;;;;;;;10580312;28;19924;-64
2022/08/03 05:58:02;;;;;;;;;;;;;;;;;;10564376;28;19924;-64
2022/08/03 06:03:04;;;;;;;;;;;;;;;;;;10581133;28;20405;-64
2022/08/03 06:08:07;;;;;;;;;;;;;;;;;;10584815;28;19924;-64
2022/08/03 06:13:09;;;;;;;;;;;;;;;;;;10589519;28;19931;-64
2022/08/03 06:18:11;;;;;;;;;;;;;;;;;;10589769;28;19924;-64
2022/08/03 06:23:13;;;;;;;;;;;;;;;;;;10589715;28;19928;-64
2022/08/03 06:28:17;;;;;;;;;;;;;;;;;;10589081;28;20014;-64
2022/08/03 06:33:39;;;;;;;;;;;;;;;;;;10552107;28;20386;-64
2022/08/03 06:39:01;;;;;;;;;;;;;;;;;;10589124;28;19928;-64
2022/08/03 06:44:03;;;;;;;;;;;;;;;;;;10588316;28;20290;-64
2022/08/03 06:49:05;;;;;;;;;;;;;;;;;;10588067;28;19959;-64
2022/08/03 06:54:07;;;;;;;;;;;;;;;;;;10587728;28;19958;-63
2022/08/03 06:59:10;;;;;;;;;;;;;;;;;;10587783;28;19924;-64
2022/08/03 07:04:32;;;;;;;;;;;;;;;;;;10588003;28;19927;-64
2022/08/03 07:09:34;;;;;;;;;;;;;;;;;;10587260;28;19946;-64
2022/08/03 07:14:36;;;;;;;;;;;;;;;;;;10587597;28;19924;-64
2022/08/03 07:19:38;;;;;;;;;;;;;;;;;;10587047;28;19924;-64
2022/08/03 07:24:43;;;;;;;;;;;;;;;;;;10587113;28;19923;-64
2022/08/03 07:29:45;;;;;;;;;;;;;;;;;;10587086;28;19924;-64
2022/08/03 07:34:47;;;;;;;;;;;;;;;;;;10586652;28;19928;-64
2022/08/03 07:39:49;;;;;;;;;;;;;;;;;;10586309;28;19928;-64
2022/08/03 07:44:52;;;;;;;;;;;;;;;;;;10586458;28;19924;-64
2022/08/03 07:49:54;;;;;;;;;;;;;;;;;;10584923;28;19924;-64
2022/08/03 07:54:56;;;;;;;;;;;;;;;;;;10585877;28;19930;-65
2022/08/03 07:59:58;;;;;;;;;;;;;;;;;;10585635;28;20298;-64
2022/08/03 08:05:03;;;;;;;;;;;;;;;;;;10585084;28;19927;-65
2022/08/03 08:10:06;;;;;;;;;;;;;;;;;;10582251;28;19930;-64
2022/08/03 08:15:08;;;;;;;;;;;;;;;;;;10585690;28;19924;-65
2022/08/03 08:20:11;;;;;;;;;;;;;;;;;;10585056;28;19930;-64
2022/08/03 08:25:13;;;;;;;;;;;;;;;;;;10584242;28;19942;-65
2022/08/03 08:30:15;;;;;;;;;;;;;;;;;;10584140;28;19924;-64
2022/08/03 08:35:20;;;;;;;;;;;;;;;;;;10566161;28;19971;-64
2022/08/03 08:40:22;;;;;;;;;;;;;;;;;;10583881;28;19924;-64
2022/08/03 08:45:24;;;;;;;;;;;;;;;;;;10583246;28;20397;-64
2022/08/03 08:50:26;;;;;;;;;;;;;;;;;;10584211;28;19931;-65
2022/08/03 08:55:29;;;;;;;;;;;;;;;;;;10584089;28;20006;-64
2022/08/03 09:00:31;;;;;;;;;;;;;;;;;;10582882;28;19927;-65
2022/08/03 09:05:33;;;;;;;;;;;;;;;;;;10583713;28;19928;-65
2022/08/03 09:10:55;;;;;;;;;;;;;;;;;;10582287;28;20367;-65
2022/08/03 09:15:57;;;;;;;;;;;;;;;;;;10582126;28;19930;-65
2022/08/03 09:21:02;;;;;;;;;;;;;;;;;;10579319;28;20362;-65
2022/08/03 09:26:19;;;;;;;;;;;;;;;;;;10582420;28;19923;-65
2022/08/03 09:31:22;;;;;;;;;;;;;;;;;;10581471;28;19924;-65
2022/08/03 09:36:24;;;;;;;;;;;;;;;;;;10582156;28;20290;-65
2022/08/03 09:41:26;;;;;;;;;;;;;;;;;;10581189;28;20397;-65
2022/08/03 09:46:30;;;;;;;;;;;;;;;;;;10580849;28;20382;-65
2022/08/03 09:51:32;;;;;;;;;;;;;;;;;;10581305;28;19939;-65
2022/08/03 09:56:54;;;;;;;;;;;;;;;;;;10582400;28;19927;-65
2022/08/03 10:01:57;;;;;;;;;;;;;;;;;;10581424;28;20371;-65
2022/08/03 10:06:59;;;;;;;;;;;;;;;;;;10581494;28;19932;-65
2022/08/03 10:12:01;;;;;;;;;;;;;;;;;;10580870;28;19973;-65
2022/08/03 10:17:03;;;;;;;;;;;;;;;;;;10579938;28;19954;-64
2022/08/03 10:22:05;;;;;;;;;;;;;;;;;;10581239;28;20362;-65
2022/08/03 10:27:07;;;;;;;;;;;;;;;;;;10581875;28;19931;-65
2022/08/03 10:32:09;;;;;;;;;;;;;;;;;;10580575;28;19947;-65
2022/08/03 10:37:12;;;;;;;;;;;;;;;;;;10580299;28;20294;-65
2022/08/03 10:42:14;;;;;;;;;;;;;;;;;;10581182;28;19935;-65
2022/08/03 10:47:16;;;;;;;;;;;;;;;;;;10580615;28;19947;-65
2022/08/03 10:52:18;;;;;;;;;;;;;;;;;;10581386;28;19931;-65
2022/08/03 10:57:36;;;;;;;;;;;;;;;;;;10587959;28;19928;-64
2022/08/03 11:02:38;;;;;;;;;;;;;;;;;;10588372;28;19930;-65
2022/08/03 11:07:40;;;;;;;;;;;;;;;;;;10587853;28;20286;-64
2022/08/03 11:12:42;;;;;;;;;;;;;;;;;;10588259;28;19931;-65
2022/08/03 11:17:44;;;;;;;;;;;;;;;;;;10587069;28;19924;-65
2022/08/03 11:22:59;;;;;;;;;;;;;;;;;;10587817;28;19924;-64
2022/08/03 11:28:01;;;;;;;;;;;;;;;;;;10587008;28;19931;-65
2022/08/03 11:33:04;;;;;;;;;;;;;;;;;;10585900;28;20400;-65
2022/08/03 11:38:06;;;;;;;;;;;;;;;;;;10586697;28;19924;-65
2022/08/03 11:43:08;;;;;;;;;;;;;;;;;;10583595;28;19924;-65
2022/08/03 11:48:10;;;;;;;;;;;;;;;;;;10585908;28;20290;-65
2022/08/03 11:53:12;;;;;;;;;;;;;;;;;;10586648;28;19923;-65
2022/08/03 11:58:14;;;;;;;;;;;;;;;;;;10586457;28;19928;-65
2022/08/03 12:03:36;;;;;;;;;;;;;;;;;;10585686;28;19928;-65
2022/08/03 12:08:38;;;;;;;;;;;;;;;;;;10585346;28;19923;-65
2022/08/03 12:13:40;;;;;;;;;;;;;;;;;;10585876;28;19931;-65
2022/08/03 12:19:02;;;;;;;;;;;;;;;;;;10584865;28;19924;-65
2022/08/03 12:24:04;;;;;;;;;;;;;;;;;;10585380;28;19928;-65
2022/08/03 12:29:07;;;;;;;;;;;;;;;;;;10584549;28;20016;-65
2022/08/03 12:34:09;;;;;;;;;;;;;;;;;;10582033;28;19924;-65
2022/08/03 12:39:11;;;;;;;;;;;;;;;;;;10583471;28;19924;-65
2022/08/03 12:44:13;;;;;;;;;;;;;;;;;;10583701;28;19930;-68
2022/08/03 12:49:17;;;;;;;;;;;;;;;;;;10583766;28;20294;-67
2022/08/03 12:54:19;;;;;;;;;;;;;;;;;;10568030;28;19969;-65
2022/08/03 12:59:25;;;;;;;;;;;;;;;;;;10559853;28;19924;-63
2022/08/03 13:04:35;;;;;;;;;;;;;;;;;;10541473;28;19936;-63
2022/08/03 13:09:38;;;;;;;;;;;;;;;;;;10565146;28;19924;-63
2022/08/03 13:14:40;;;;;;;;;;;;;;;;;;10582860;28;19947;-64
2022/08/03 13:19:42;;;;;;;;;;;;;;;;;;10582270;28;19924;-62
2022/08/03 13:24:44;;;;;;;;;;;;;;;;;;10582532;28;20267;-63
2022/08/03 13:29:46;;;;;;;;;;;;;;;;;;10582998;28;19924;-62
2022/08/03 13:34:48;;;;;;;;;;;;;;;;;;10564097;28;19924;-63
2022/08/03 13:39:50;;;;;;;;;;;;;;;;;;10581071;28;19946;-62
2022/08/03 13:45:00;;;;;;;;;;;;;;;;;;10582284;28;19930;-62
2022/08/03 13:50:03;;;;;;;;;;;;;;;;;;10580362;28;19924;-63
2022/08/03 13:55:05;;;;;;;;;;;;;;;;;;10583244;28;19942;-63
2022/08/03 14:00:07;;;;;;;;;;;;;;;;;;10581780;28;20389;-62
2022/08/03 14:05:09;;;;;;;;;;;;;;;;;;10582277;28;19924;-62
2022/08/03 14:10:11;;;;;;;;;;;;;;;;;;10581580;28;20362;-62
2022/08/03 14:15:13;;;;;;;;;;;;;;;;;;10581513;28;19931;-62
2022/08/03 14:20:15;;;;;;;;;;;;;;;;;;10582014;28;19928;-62
2022/08/03 14:25:40;;;;;;;;;;;;;;;;;;10581218;28;20270;-62
2022/08/03 14:30:44;;;;;;;;;;;;;;;;;;10587183;28;19924;-62
2022/08/03 14:35:46;;;;;;;;;;;;;;;;;;10589119;28;19923;-63
2022/08/03 14:40:48;;;;;;;;;;;;;;;;;;10589137;28;19931;-63
2022/08/03 14:45:52;;;;;;;;;;;;;;;;;;10588550;28;20367;-63
2022/08/03 14:50:55;;;;;;;;;;;;;;;;;;10589294;28;19924;-62
2022/08/03 14:55:57;;;;;;;;;;;;;;;;;;10589413;28;19924;-63
2022/08/03 15:00:59;;;;;;;;;;;;;;;;;;10586778;28;19923;-64
2022/08/03 15:06:01;;;;;;;;;;;;;;;;;;10586356;28;19931;-63
2022/08/03 15:11:03;;;;;;;;;;;;;;;;;;10587860;28;19924;-68
2022/08/03 15:16:07;;;;;;;;;;;;;;;;;;10557327;28;19936;-68
2022/08/03 15:21:09;;;;;;;;;;;;;;;;;;10585518;28;19936;-68
2022/08/03 15:26:17;;;;;;;;;;;;;;;;;;10578851;28;19930;-67
2022/08/03 15:31:33;;;;;;;;;;;;;;;;;;10587135;28;19930;-68
2022/08/03 15:36:35;;;;;;;;;;;;;;;;;;10586604;28;19928;-68
2022/08/03 15:41:37;;;;;;;;;;;;;;;;;;10585683;28;19931;-67
2022/08/03 15:46:39;;;;;;;;;;;;;;;;;;10567410;28;20401;-68
2022/08/03 15:51:41;;;;;;;;;;;;;;;;;;10564167;28;20390;-68
2022/08/03 15:56:44;;;;;;;;;;;;;;;;;;10568307;28;19924;-67
2022/08/03 16:01:46;;;;;;;;;;;;;;;;;;10586300;28;19935;-68
2022/08/03 16:06:48;;;;;;;;;;;;;;;;;;10583514;28;19973;-67
2022/08/03 16:11:50;;;;;;;;;;;;;;;;;;10586011;28;19923;-68
2022/08/03 16:16:52;;;;;;;;;;;;;;;;;;10584706;28;19924;-67
2022/08/03 16:21:57;;;;;;;;;;;;;;;;;;10584832;28;20392;-68
2022/08/03 16:26:59;;;;;;;;;;;;;;;;;;10582742;28;19931;-68
2022/08/03 16:32:05;;;;;;;;;;;;;;;;;;10585050;28;19923;-67
2022/08/03 16:37:10;;;;;;;;;;;;;;;;;;10500218;28;19931;-67
2022/08/03 16:42:32;;;;;;;;;;;;;;;;;;10543956;28;19977;-69
2022/08/03 16:47:34;;;;;;;;;;;;;;;;;;10583163;28;19931;-67
2022/08/03 16:52:36;;;;;;;;;;;;;;;;;;10582659;28;19934;-67
2022/08/03 16:57:39;;;;;;;;;;;;;;;;;;10582789;28;19924;-68
2022/08/03 17:03:01;;;;;;;;;;;;;;;;;;10554236;22;19925;-60
2022/08/03 17:08:05;;;;;;;;;;;;;;;;;;10583798;28;20015;-60
2022/08/03 17:13:11;;;;;;;;;;;;;;;;;;10582343;28;19931;-60
2022/08/03 17:18:24;;;;;;;;;;;;;;;;;;10582653;28;19984;-60
2022/08/03 17:23:26;;;;;;;;;;;;;;;;;;10582596;28;20294;-60
2022/08/03 17:28:36;;;;;;;;;;;;;;;;;;10582590;28;20316;-59
2022/08/03 17:33:52;;;;;;;;;;;;;;;;;;10583108;28;19931;-60
2022/08/03 17:38:55;;;;;;;;;;;;;;;;;;10564954;28;19930;-60
2022/08/03 17:43:57;;;;;;;;;;;;;;;;;;10579729;28;19924;-59
2022/08/03 17:49:17;;;;;;;;;;;;;;;;;;10575763;28;19971;-60
2022/08/03 17:54:25;;;;;;;;;;;;;;;;;;10581922;28;19959;-60
2022/08/03 17:59:28;;;;;;;;;;;;;;;;;;10572411;28;19923;-60
2022/08/03 18:04:50;;;;;;;;;;;;;;;;;;10586203;28;19977;-59
2022/08/03 18:09:56;;;;;;;;;;;;;;;;;;10589445;28;19966;-59
2022/08/03 18:15:06;;;;;;;;;;;;;;;;;;10572115;28;19928;-59
2022/08/03 18:20:09;;;;;;;;;;;;;;;;;;10588732;28;20018;-59
2022/08/03 18:25:31;;;;;;;;;;;;;;;;;;10587880;28;19931;-59
2022/08/03 18:30:46;;;;;;;;;;;;;;;;;;10588653;28;19928;-60
2022/08/03 18:35:54;;;;;;;;;;;;;;;;;;10587567;28;19936;-60
2022/08/03 18:40:56;;;;;;;;;;;;;;;;;;10588118;28;19927;-60
2022/08/03 18:45:58;;;;;;;;;;;;;;;;;;10587381;28;19930;-59
2022/08/03 18:51:00;;;;;;;;;;;;;;;;;;10588550;28;20006;-59
2022/08/03 18:56:02;;;;;;;;;;;;;;;;;;10587499;28;19974;-59
2022/08/03 19:01:04;;;;;;;;;;;;;;;;;;10587101;28;20309;-59
2022/08/03 19:06:06;;;;;;;;;;;;;;;;;;10587511;28;19923;-59
2022/08/03 19:11:17;;;;;;;;;;;;;;;;;;10587486;28;19923;-59
2022/08/03 19:16:19;;;;;;;;;;;;;;;;;;10586732;28;19931;-59
2022/08/03 19:21:21;;;;;;;;;;;;;;;;;;10587016;28;19931;-59
2022/08/03 19:26:23;;;;;;;;;;;;;;;;;;10585348;28;19967;-59
2022/08/03 19:31:31;;;;;;;;;;;;;;;;;;10568944;28;19931;-59
2022/08/03 19:36:35;;;;;;;;;;;;;;;;;;10587497;28;19930;-59
2022/08/03 19:41:43;;;;;;;;;;;;;;;;;;10585530;28;21444;-59
2022/08/03 19:46:45;;;;;;;;;;;;;;;;;;10586857;28;19935;-59
2022/08/03 19:51:47;;;;;;;;;;;;;;;;;;10585984;28;19950;-59
2022/08/03 19:57:03;;;;;;;;;;;;;;;;;;10585658;28;20279;-58
2022/08/03 20:02:05;;;;;;;;;;;;;;;;;;10601539;27;19928;-59
2022/08/03 20:07:07;;;;;;;;;;;;;;;;;;10586305;28;19923;-59
2022/08/03 20:12:09;;;;;;;;;;;;;;;;;;10583678;28;20282;-59
2022/08/03 20:17:12;;;;;;;;;;;;;;;;;;10562247;28;20018;-59
2022/08/03 20:22:14;;;;;;;;;;;;;;;;;;10584950;28;20355;-59
2022/08/03 20:27:16;;;;;;;;;;;;;;;;;;10585126;28;19990;-59
2022/08/03 20:32:18;;;;;;;;;;;;;;;;;;10585237;28;19923;-59
2022/08/03 20:37:25;;;;;;;;;;;;;;;;;;10584079;28;20259;-59
2022/08/03 20:42:27;;;;;;;;;;;;;;;;;;10584140;28;19923;-59
2022/08/03 20:47:29;;;;;;;;;;;;;;;;;;10566391;28;19930;-60
2022/08/03 20:52:32;;;;;;;;;;;;;;;;;;10583858;28;20271;-59
2022/08/03 20:57:34;;;;;;;;;;;;;;;;;;10582471;28;19924;-59
2022/08/03 21:02:36;;;;;;;;;;;;;;;;;;10583228;28;19924;-59
2022/08/03 21:07:38;;;;;;;;;;;;;;;;;;10583929;28;19994;-59
2022/08/03 21:13:03;;;;;;;;;;;;;;;;;;10579353;28;19924;-59
2022/08/03 21:18:17;;;;;;;;;;;;;;;;;;10583280;28;19971;-59
2022/08/03 21:23:20;;;;;;;;;;;;;;;;;;10583112;28;19928;-59
2022/08/03 21:28:41;;;;;;;;;;;;;;;;;;10582530;28;19931;-59
2022/08/03 21:33:43;;;;;;;;;;;;;;;;;;10578842;28;19931;-59
2022/08/03 21:38:45;;;;;;;;;;;;;;;;;;10581461;28;19928;-59
2022/08/03 21:43:48;;;;;;;;;;;;;;;;;;10582740;28;19923;-59
2022/08/03 21:48:50;;;;;;;;;;;;;;;;;;10582724;28;19930;-59
2022/08/03 21:53:52;;;;;;;;;;;;;;;;;;10581508;28;20309;-59
2022/08/03 21:59:04;;;;;;;;;;;;;;;;;;10581365;28;19924;-59
2022/08/03 22:04:06;;;;;;;;;;;;;;;;;;10582364;28;19930;-59
2022/08/03 22:09:08;;;;;;;;;;;;;;;;;;10563747;28;19924;-59
2022/08/03 22:14:10;;;;;;;;;;;;;;;;;;10582276;28;19930;-59
2022/08/03 22:19:12;;;;;;;;;;;;;;;;;;10580882;28;19965;-59
2022/08/03 22:24:14;;;;;;;;;;;;;;;;;;10581283;28;20298;-59
2022/08/03 22:29:16;;;;;;;;;;;;;;;;;;10581273;28;19947;-59
2022/08/03 22:34:18;;;;;;;;;;;;;;;;;;10581571;28;19931;-59
2022/08/03 22:39:21;;;;;;;;;;;;;;;;;;10580021;28;19924;-59
2022/08/03 22:44:26;;;;;;;;;;;;;;;;;;10580925;28;19924;-59
2022/08/03 22:49:28;;;;;;;;;;;;;;;;;;10583158;28;19931;-59
2022/08/03 22:54:30;;;;;;;;;;;;;;;;;;10588984;28;19931;-59
2022/08/03 22:59:32;;;;;;;;;;;;;;;;;;10587446;28;19924;-59
2022/08/03 23:04:40;;;;;;;;;;;;;;;;;;10588134;28;19924;-59
2022/08/03 23:09:42;;;;;;;;;;;;;;;;;;10588370;28;19924;-59
2022/08/03 23:14:44;;;;;;;;;;;;;;;;;;10587972;28;19934;-59
2022/08/03 23:19:46;;;;;;;;;;;;;;;;;;10586749;28;20405;-59
2022/08/03 23:24:49;;;;;;;;;;;;;;;;;;10587974;28;19924;-59
2022/08/03 23:29:51;;;;;;;;;;;;;;;;;;10587429;28;19924;-59
2022/08/03 23:40:14;;;;;;;;;;;;;;;;;;10586991;28;19930;-59
2022/08/03 23:45:16;;;;;;;;;;;;;;;;;;10586523;28;19924;-59
2022/08/03 23:50:18;;;;;;;;;;;;;;;;;;10587044;28;19924;-59
2022/08/03 23:55:20;;;;;;;;;;;;;;;;;;10567343;28;19924;-59
